Terminal Aerodrome Forecast
Issued by NWS

Home | Current Version | Previous Version | Graphics & Text | Print | Product List | Glossary Off
Versions: 1 2 3 4 5 6 7 8 9 10 11 12 13 14 15 16 17 18 19 20 21 22 23 24 25 26 27

000
FTUS43 KDDC 232321
TAFHYS
TAF
KHYS 232321Z 2400/2424 15016G25KT P6SM BKN090
     FM240300 16013KT P6SM OVC090 PROB30 2409/2412 4SM -TSRA
      OVC070CB
     FM241400 24006KT P6SM BKN120=

USA.gov is the U.S. government's official web portal to all federal, state and local government web resources and services.